Time;durP1;ratioP1;P1;durP2;ratioP2;P2;SDS_P1;SDS_P2;PMS_P1;PMS_P2;Temp;Humidity;BMP_temperature;BMP_pressure;BME280_temperature;BME280_humidity;BME280_pressure;Samples;Min_cycle;Max_cycle;Signal;HPM_P1;HPM_P2
2022/03/29 00:02:12;;;;;;;30.92;24.05;;;;;;;15.17;48.62;101943.28;143713;590;47007;-73
2022/03/29 00:04:38;;;;;;;30.27;24.87;;;;;;;15.13;48.58;101934.72;143716;599;47008;-73
2022/03/29 00:07:04;;;;;;;31.67;22.70;;;;;;;15.13;48.75;101934.72;143715;566;47004;-73
2022/03/29 00:09:31;;;;;;;28.92;24.30;;;;;;;15.10;48.84;101923.47;143713;583;47012;-73
2022/03/29 00:11:57;;;;;;;32.95;23.92;;;;;;;15.07;48.77;101922.00;143712;599;47006;-73
2022/03/29 00:14:27;;;;;;;30.23;23.73;;;;;;;15.05;48.80;101920.50;143714;577;47008;-73
2022/03/29 00:16:53;;;;;;;32.47;23.90;;;;;;;15.05;48.79;101934.03;143660;586;54873;-74
2022/03/29 00:22:05;;;;;;;30.65;23.92;;;;;;;15.05;49.01;101921.37;143716;573;47004;-73
2022/03/29 00:24:31;;;;;;;36.85;25.00;;;;;;;15.07;49.02;101910.31;143711;653;47008;-71
2022/03/29 00:26:58;;;;;;;30.45;24.40;;;;;;;15.10;48.91;101905.34;143715;602;47004;-72
2022/03/29 00:29:24;;;;;;;33.25;25.77;;;;;;;15.14;48.85;101911.22;143715;593;47010;-72
2022/03/29 00:31:51;;;;;;;33.08;25.62;;;;;;;15.14;48.37;101903.09;143716;581;47004;-72
2022/03/29 00:34:17;;;;;;;30.90;23.23;;;;;;;15.11;48.03;101900.78;143715;628;47008;-72
2022/03/29 00:36:44;;;;;;;25.98;21.00;;;;;;;15.03;48.22;101896.38;143714;579;47006;-73
2022/03/29 00:39:10;;;;;;;26.98;19.60;;;;;;;15.00;48.32;101891.34;143713;626;47006;-73
2022/03/29 00:41:36;;;;;;;25.08;20.12;;;;;;;14.92;48.27;101892.34;143715;650;47006;-72
2022/03/29 00:44:05;;;;;;;27.80;21.05;;;;;;;14.90;48.54;101894.41;143716;569;47008;-72
2022/03/29 00:46:33;;;;;;;26.17;20.35;;;;;;;14.85;48.46;101886.91;143716;592;47006;-71
2022/03/29 00:48:59;;;;;;;25.40;20.88;;;;;;;14.86;48.69;101874.19;143716;613;47013;-73
2022/03/29 00:51:27;;;;;;;33.45;20.55;;;;;;;14.87;48.67;101875.06;143711;608;47006;-72
2022/03/29 00:53:54;;;;;;;26.75;20.75;;;;;;;14.87;48.87;101870.47;143716;632;47008;-71
2022/03/29 00:56:21;;;;;;;31.30;19.80;;;;;;;14.88;48.94;101869.44;143711;577;47004;-72
2022/03/29 00:58:48;;;;;;;28.75;20.70;;;;;;;14.85;48.79;101867.97;143714;677;47010;-72
2022/03/29 01:01:15;;;;;;;28.48;20.37;;;;;;;14.85;48.86;101862.56;143714;576;47006;-72
2022/03/29 01:03:41;;;;;;;28.80;21.30;;;;;;;14.77;49.07;101864.59;143714;601;47009;-72
2022/03/29 01:06:11;;;;;;;31.50;19.85;;;;;;;14.74;49.33;101860.37;143716;616;47004;-71
2022/03/29 01:08:38;;;;;;;26.75;21.17;;;;;;;14.76;49.38;101860.22;143716;596;47010;-72
2022/03/29 01:11:12;;;;;;;30.08;21.70;;;;;;;14.75;49.21;101863.94;143714;623;47006;-72
2022/03/29 01:13:41;;;;;;;29.83;22.27;;;;;;;14.79;49.17;101854.41;143717;634;47008;-72
2022/03/29 01:18:54;;;;;;;26.23;21.17;;;;;;;14.82;49.26;101851.31;143707;664;49004;-71
2022/03/29 01:21:22;;;;;;;29.85;22.70;;;;;;;14.83;49.12;101834.03;143710;592;47012;-73
2022/03/29 01:23:50;;;;;;;34.50;23.85;;;;;;;14.83;49.16;101844.84;143708;569;47006;-72
2022/03/29 01:26:17;;;;;;;25.42;22.05;;;;;;;14.82;49.04;101841.31;143709;577;48007;-72
2022/03/29 01:28:45;;;;;;;30.45;23.75;;;;;;;14.84;49.03;101833.00;143714;581;47008;-72
2022/03/29 01:31:13;;;;;;;33.03;23.05;;;;;;;14.87;49.04;101823.66;143714;672;47004;-72
2022/03/29 01:33:40;;;;;;;29.80;23.92;;;;;;;14.89;48.95;101821.59;143717;567;47006;-72
2022/03/29 01:36:10;;;;;;;34.00;23.10;;;;;;;14.88;49.04;101811.81;143716;592;47004;-69
2022/03/29 01:38:38;;;;;;;33.65;24.52;;;;;;;14.90;48.93;101809.75;143720;576;46923;-70
2022/03/29 01:41:10;;;;;;;35.08;25.30;;;;;;;14.91;48.71;101804.13;143717;595;47008;-73
2022/03/29 01:43:36;;;;;;;33.47;24.52;;;;;;;14.92;48.86;101803.09;143707;589;48008;-74
2022/03/29 01:46:03;;;;;;;35.70;26.05;;;;;;;14.93;48.69;101799.34;143717;623;47004;-74
2022/03/29 01:48:30;;;;;;;37.25;23.35;;;;;;;14.93;48.76;101799.34;143716;595;47008;-73
2022/03/29 01:50:57;;;;;;;27.98;21.37;;;;;;;14.93;48.57;101796.63;143716;576;48002;-74
2022/03/29 01:53:25;;;;;;;26.73;20.35;;;;;;;14.90;48.83;101794.34;143716;574;47006;-74
2022/03/29 01:55:56;;;;;;;26.83;18.98;;;;;;;14.95;48.56;101801.84;143717;584;47002;-73
2022/03/29 01:58:24;;;;;;;27.65;19.87;;;;;;;14.91;48.84;101795.19;143715;593;47008;-73
2022/03/29 02:00:51;;;;;;;27.58;20.70;;;;;;;14.89;48.88;101802.66;143714;580;47004;-73
2022/03/29 02:03:17;;;;;;;31.70;20.42;;;;;;;14.89;48.94;101800.78;143716;581;47007;-73
2022/03/29 02:05:43;;;;;;;24.83;20.27;;;;;;;14.90;48.83;101801.62;143713;613;47002;-73
2022/03/29 02:08:10;;;;;;;27.77;21.95;;;;;;;14.84;48.86;101798.69;143712;583;47008;-73
2022/03/29 02:10:37;;;;;;;28.20;20.12;;;;;;;14.81;49.05;101800.97;143713;612;48002;-73
2022/03/29 02:13:03;;;;;;;29.52;20.42;;;;;;;14.73;49.47;101793.00;143712;627;50006;-73
2022/03/29 02:15:30;;;;;;;28.30;20.33;;;;;;;14.70;49.31;101796.94;143714;601;47004;-73
2022/03/29 02:17:56;;;;;;;26.85;19.02;;;;;;;14.70;49.32;101784.25;143716;619;47011;-73
2022/03/29 02:20:24;;;;;;;28.60;18.98;;;;;;;14.69;49.08;101789.87;143713;593;47004;-73
2022/03/29 02:22:51;;;;;;;31.45;20.58;;;;;;;14.65;49.27;101789.37;143717;695;46006;-74
2022/03/29 02:25:17;;;;;;;29.02;20.25;;;;;;;14.65;49.15;101783.97;143715;695;47002;-73
2022/03/29 02:27:45;;;;;;;28.00;18.70;;;;;;;14.61;49.40;101782.72;143717;567;47008;-73
2022/03/29 02:30:16;;;;;;;24.87;18.83;;;;;;;14.62;49.43;101778.97;143715;568;47004;-73
2022/03/29 02:32:43;;;;;;;22.25;18.65;;;;;;;14.59;49.43;101782.09;143716;587;47007;-73
2022/03/29 02:35:11;;;;;;;30.88;19.62;;;;;;;14.58;49.53;101779.56;143717;607;46006;-73
2022/03/29 02:37:38;;;;;;;28.27;19.98;;;;;;;14.58;49.54;101777.72;143714;609;47010;-72
2022/03/29 02:40:05;;;;;;;25.83;20.27;;;;;;;14.60;49.67;101772.09;143713;660;47004;-73
2022/03/29 02:42:32;;;;;;;29.02;19.48;;;;;;;14.60;49.60;101770.22;143715;585;47006;-73
2022/03/29 02:44:59;;;;;;;27.85;20.12;;;;;;;14.59;49.51;101770.41;143715;586;47002;-73
2022/03/29 02:47:25;;;;;;;27.08;17.37;;;;;;;14.54;49.41;101768.31;143715;576;47010;-73
2022/03/29 02:49:52;;;;;;;25.05;16.02;;;;;;;14.52;49.22;101773.94;143711;615;47004;-73
2022/03/29 02:52:18;;;;;;;23.42;15.63;;;;;;;14.47;49.40;101780.97;143716;597;47006;-72
2022/03/29 02:54:45;;;;;;;24.63;17.27;;;;;;;14.46;49.52;101773.91;143716;568;47004;-73
2022/03/29 02:57:11;;;;;;;21.37;16.23;;;;;;;14.43;49.65;101771.59;143717;669;47008;-73
2022/03/29 02:59:37;;;;;;;24.95;16.87;;;;;;;14.42;49.50;101769.91;143715;611;47004;-73
2022/03/29 03:02:04;;;;;;;25.95;17.52;;;;;;;14.40;49.46;101765.53;143715;568;47006;-73
2022/03/29 03:04:30;;;;;;;27.45;20.40;;;;;;;14.36;49.63;101766.16;143716;589;47004;-73
2022/03/29 03:06:57;;;;;;;24.80;18.95;;;;;;;14.33;49.66;101772.75;143717;611;47008;-73
2022/03/29 03:09:23;;;;;;;22.65;18.10;;;;;;;14.33;49.77;101771.94;143715;644;47004;-73
2022/03/29 03:11:50;;;;;;;24.23;17.80;;;;;;;14.34;49.51;101770.91;143716;662;47010;-73
2022/03/29 03:14:16;;;;;;;24.73;18.30;;;;;;;14.33;49.55;101767.34;143716;580;47004;-73
2022/03/29 03:16:43;;;;;;;24.70;18.35;;;;;;;14.32;49.43;101771.09;143718;590;47009;-73
2022/03/29 03:19:10;;;;;;;25.23;17.10;;;;;;;14.31;49.50;101774.00;143713;586;47004;-73
2022/03/29 03:21:36;;;;;;;28.23;18.55;;;;;;;14.29;49.57;101771.50;143716;587;47006;-74
2022/03/29 03:24:03;;;;;;;39.50;23.70;;;;;;;14.26;49.58;101771.91;143714;649;47002;-73
2022/03/29 03:26:30;;;;;;;34.58;23.73;;;;;;;14.26;49.55;101763.78;143715;574;47008;-73
2022/03/29 03:28:56;;;;;;;35.80;22.70;;;;;;;14.27;49.63;101756.50;143713;602;47004;-73
2022/03/29 03:31:23;;;;;;;36.35;24.00;;;;;;;14.24;49.42;101763.16;143717;574;47006;-72
2022/03/29 03:33:49;;;;;;;27.75;22.23;;;;;;;14.22;49.53;101759.81;143712;575;49002;-73
2022/03/29 03:36:16;;;;;;;24.42;17.85;;;;;;;14.18;49.64;101763.94;143715;570;47008;-73
2022/03/29 03:38:42;;;;;;;24.55;16.20;;;;;;;14.15;49.56;101757.06;143711;567;47004;-73
2022/03/29 03:41:09;;;;;;;22.75;16.12;;;;;;;14.15;49.03;101757.06;143714;573;47006;-73
2022/03/29 03:43:35;;;;;;;20.20;13.82;;;;;;;14.15;48.95;101753.50;143714;601;47002;-73
2022/03/29 03:46:01;;;;;;;23.77;14.32;;;;;;;14.16;49.08;101757.88;143715;586;47010;-73
2022/03/29 03:48:28;;;;;;;17.90;13.10;;;;;;;14.10;48.96;101754.09;143713;639;47004;-73
2022/03/29 03:50:54;;;;;;;18.12;12.43;;;;;;;14.08;49.05;101754.31;143715;569;47006;-73
2022/03/29 03:53:21;;;;;;;17.77;13.55;;;;;;;14.06;49.09;101758.22;143712;678;47010;-73
2022/03/29 03:55:47;;;;;;;20.88;14.13;;;;;;;14.06;49.10;101761.78;143714;599;47008;-73
2022/03/29 03:58:14;;;;;;;20.42;13.82;;;;;;;14.06;49.01;101764.47;143714;576;47004;-72
2022/03/29 04:00:40;;;;;;;17.33;13.05;;;;;;;14.06;49.14;101760.94;143715;592;47006;-73
2022/03/29 04:03:06;;;;;;;28.45;14.10;;;;;;;14.04;49.02;101766.53;143715;598;47004;-73
2022/03/29 04:05:34;;;;;;;21.15;14.80;;;;;;;14.04;49.04;101766.53;143717;674;47008;-72
2022/03/29 04:08:00;;;;;;;20.25;14.95;;;;;;;14.05;49.27;101770.91;143711;585;47004;-73
2022/03/29 04:10:27;;;;;;;24.10;16.65;;;;;;;14.03;49.16;101767.56;143715;639;47006;-73
2022/03/29 04:12:53;;;;;;;21.23;16.00;;;;;;;14.02;49.14;101767.78;143716;576;47004;-73
2022/03/29 04:15:19;;;;;;;23.95;16.95;;;;;;;14.00;49.05;101765.25;143717;597;47008;-73
2022/03/29 04:17:46;;;;;;;22.35;16.55;;;;;;;13.97;49.36;101770.22;143714;583;47004;-73
2022/03/29 04:20:12;;;;;;;21.50;15.32;;;;;;;13.92;49.21;101768.09;143717;583;47006;-74
2022/03/29 04:22:39;;;;;;;22.83;17.52;;;;;;;13.93;49.49;101757.09;143715;604;47004;-73
2022/03/29 04:25:06;;;;;;;25.80;17.60;;;;;;;13.94;49.45;101758.78;143716;657;47011;-74
2022/03/29 04:27:32;;;;;;;32.50;20.40;;;;;;;13.98;49.55;101759.19;143715;682;47006;-73
2022/03/29 04:29:59;;;;;;;31.48;21.70;;;;;;;13.99;49.34;101757.34;143716;617;47002;-72
2022/03/29 04:32:25;;;;;;;30.85;20.67;;;;;;;14.00;49.70;101748.22;143717;683;47002;-73
2022/03/29 04:34:51;;;;;;;25.50;19.02;;;;;;;14.00;49.53;101750.91;143716;616;47008;-73
2022/03/29 04:37:18;;;;;;;27.37;19.45;;;;;;;14.00;49.63;101754.44;143715;633;47004;-73
2022/03/29 04:39:44;;;;;;;27.20;18.85;;;;;;;13.97;49.56;101752.13;143717;618;47006;-73
2022/03/29 04:42:11;;;;;;;24.87;18.30;;;;;;;13.97;49.66;101760.22;143717;604;47002;-73
2022/03/29 04:44:38;;;;;;;23.05;17.40;;;;;;;13.94;49.51;101755.25;143716;604;47008;-73
2022/03/29 04:47:05;;;;;;;25.80;20.15;;;;;;;13.89;49.71;101755.81;143714;575;47004;-73
2022/03/29 04:49:31;;;;;;;29.55;18.77;;;;;;;13.81;50.03;101758.66;143717;572;47006;-72
2022/03/29 04:51:57;;;;;;;33.53;23.08;;;;;;;13.80;50.22;101755.13;143716;635;47004;-72
2022/03/29 04:54:24;;;;;;;33.53;24.33;;;;;;;13.80;50.33;101755.13;143717;567;47010;-73
2022/03/29 04:56:50;;;;;;;38.63;28.80;;;;;;;13.84;50.29;101760.97;143715;667;47004;-73
2022/03/29 04:59:17;;;;;;;42.00;26.87;;;;;;;13.84;50.45;101760.97;143717;592;47006;-72
2022/03/29 05:01:43;;;;;;;39.75;25.42;;;;;;;13.86;50.45;101763.47;143716;568;47004;-73
2022/03/29 05:04:10;;;;;;;29.75;21.37;;;;;;;13.86;50.75;101766.19;143713;582;47004;-72
2022/03/29 05:06:36;;;;;;;30.95;22.48;;;;;;;13.86;50.89;101775.09;143712;630;47004;-73
2022/03/29 05:09:03;;;;;;;38.28;23.90;;;;;;;13.93;51.07;101777.88;143716;617;47007;-73
2022/03/29 05:11:30;;;;;;;31.92;20.95;;;;;;;13.97;50.55;101779.13;143714;646;47002;-73
2022/03/29 05:13:56;;;;;;;28.92;19.90;;;;;;;14.03;50.20;101782.94;143718;663;46008;-72
2022/03/29 05:16:22;;;;;;;31.42;20.77;;;;;;;14.07;50.49;101790.47;143715;643;47005;-73
2022/03/29 05:18:51;;;;;;;26.37;18.58;;;;;;;14.12;49.81;101781.75;143714;653;50925;-72
2022/03/29 05:21:17;;;;;;;25.75;19.02;;;;;;;14.18;49.88;101777.44;143717;585;47004;-72
2022/03/29 05:23:43;;;;;;;29.77;18.95;;;;;;;14.19;50.13;101779.09;143719;577;46018;-73
2022/03/29 05:26:10;;;;;;;28.67;18.85;;;;;;;14.26;50.08;101780.00;143715;639;47004;-72
2022/03/29 05:28:37;;;;;;;24.02;17.58;;;;;;;14.33;50.19;101780.03;143717;580;47006;-72
2022/03/29 05:31:03;;;;;;;27.27;18.87;;;;;;;14.36;50.08;101782.34;143717;584;47004;-72
2022/03/29 05:33:30;;;;;;;31.15;20.80;;;;;;;14.38;49.76;101793.81;143719;645;47008;-72
2022/03/29 05:35:57;;;;;;;24.87;18.60;;;;;;;14.45;49.82;101791.16;143715;586;47004;-72
2022/03/29 05:38:24;;;;;;;27.25;17.55;;;;;;;14.48;49.57;101791.56;143716;589;47007;-72
2022/03/29 05:40:50;;;;;;;24.00;15.95;;;;;;;14.54;49.18;101804.31;143715;628;47004;-72
2022/03/29 05:43:17;;;;;;;34.08;19.12;;;;;;;14.60;49.20;101796.41;143716;573;47008;-72
2022/03/29 05:45:45;;;;;;;28.25;17.42;;;;;;;14.66;49.02;101793.75;143715;585;47004;-72
2022/03/29 05:50:55;;;;;;;27.92;18.35;;;;;;;14.77;48.61;101805.91;143718;657;47002;-72
2022/03/29 05:53:23;;;;;;;28.42;18.42;;;;;;;14.82;48.58;101806.16;143716;623;47009;-69
2022/03/29 05:55:50;;;;;;;29.15;19.65;;;;;;;14.88;48.48;101793.69;143716;600;47004;-69
2022/03/29 05:58:16;;;;;;;36.63;21.85;;;;;;;14.94;48.70;101795.59;143717;632;47006;-68
2022/03/29 06:00:43;;;;;;;30.67;23.60;;;;;;;14.96;49.83;101781.88;143720;600;47000;-70
2022/03/29 06:03:10;;;;;;;37.67;25.42;;;;;;;14.97;50.68;101792.50;143716;568;47008;-72
2022/03/29 06:05:42;;;;;;;37.83;25.75;;;;;;;15.00;51.30;101786.66;143716;640;47004;-71
2022/03/29 06:08:08;;;;;;;36.88;25.70;;;;;;;15.06;51.33;101779.63;143720;619;46006;-73
2022/03/29 06:10:35;;;;;;;42.60;28.25;;;;;;;15.12;50.65;101770.69;143719;597;47008;-74
2022/03/29 06:13:01;;;;;;;39.25;25.60;;;;;;;15.19;50.15;101776.13;143719;567;47008;-72
2022/03/29 06:15:28;;;;;;;42.72;23.62;;;;;;;15.25;49.25;101764.47;143716;629;47004;-71
2022/03/29 06:17:54;;;;;;;29.58;21.50;;;;;;;15.30;48.78;101764.72;143719;663;47006;-71
2022/03/29 06:20:21;;;;;;;27.83;20.77;;;;;;;15.34;48.19;101762.44;143718;569;47009;-72
2022/03/29 06:22:48;;;;;;;36.47;21.45;;;;;;;15.42;47.94;101764.09;143719;590;47010;-70
2022/03/29 06:25:14;;;;;;;31.15;20.90;;;;;;;15.49;48.17;101764.97;143717;597;47004;-72
2022/03/29 06:27:41;;;;;;;31.08;18.73;;;;;;;15.56;47.68;101756.84;143717;590;47006;-71
2022/03/29 06:30:09;;;;;;;36.00;19.67;;;;;;;15.61;47.40;101763.31;143719;598;47002;-72
2022/03/29 06:32:45;;;;;;;31.58;18.83;;;;;;;15.67;47.18;101756.22;143716;611;47008;-71
2022/03/29 06:35:11;;;;;;;27.25;19.02;;;;;;;15.74;47.14;101762.50;143715;596;47006;-71
2022/03/29 06:37:38;;;;;;;27.35;17.48;;;;;;;15.81;46.60;101753.50;143716;645;47008;-71
2022/03/29 06:40:05;;;;;;;26.58;16.33;;;;;;;15.89;46.65;101759.59;143718;583;47006;-72
2022/03/29 06:42:32;;;;;;;25.88;18.33;;;;;;;15.95;46.28;101748.97;143717;588;47020;-72
2022/03/29 06:44:59;;;;;;;30.73;20.42;;;;;;;16.01;46.69;101748.13;143717;615;47006;-73
2022/03/29 06:47:26;;;;;;;26.98;20.58;;;;;;;16.06;46.08;101745.66;143719;589;46008;-70
2022/03/29 06:49:53;;;;;;;29.02;20.15;;;;;;;16.13;46.04;101748.34;143719;652;47004;-71
2022/03/29 06:52:20;;;;;;;27.58;20.50;;;;;;;16.19;45.64;101748.34;143717;647;46012;-72
2022/03/29 06:54:46;;;;;;;31.65;20.80;;;;;;;16.23;46.04;101747.91;143716;577;47006;-72
2022/03/29 06:57:14;;;;;;;30.23;21.27;;;;;;;16.26;45.95;101742.03;143720;569;46008;-73
2022/03/29 06:59:41;;;;;;;32.00;21.80;;;;;;;16.33;45.81;101742.88;143718;576;47005;-71
2022/03/29 07:02:08;;;;;;;29.67;22.52;;;;;;;16.36;45.43;101750.59;143719;584;47010;-70
2022/03/29 07:04:35;;;;;;;34.30;21.92;;;;;;;16.40;45.32;101751.00;143716;572;47004;-69
2022/03/29 07:07:01;;;;;;;30.80;21.62;;;;;;;16.43;45.49;101758.72;143719;588;47009;-70
2022/03/29 07:12:12;;;;;;;38.60;22.40;;;;;;;16.45;45.12;101760.16;143716;627;47006;-71
2022/03/29 07:14:38;;;;;;;28.23;20.95;;;;;;;16.48;44.70;101762.44;143714;620;47007;-71
2022/03/29 07:17:13;;;;;;;30.52;20.00;;;;;;;16.51;44.74;101755.75;143718;582;47008;-72
2022/03/29 07:19:40;;;;;;;30.45;19.30;;;;;;;16.55;44.91;101754.28;143719;583;47004;-69
2022/03/29 07:22:06;;;;;;;25.95;18.62;;;;;;;16.52;45.16;101757.41;143720;592;47010;-69
2022/03/29 07:24:32;;;;;;;28.17;19.27;;;;;;;16.51;45.51;101753.03;143716;567;47006;-69
2022/03/29 07:27:00;;;;;;;32.10;19.77;;;;;;;16.56;45.32;101750.53;143713;584;47008;-68
2022/03/29 07:29:27;;;;;;;35.15;20.50;;;;;;;16.58;45.63;101747.63;143718;575;47002;-67
2022/03/29 07:31:53;;;;;;;32.15;20.08;;;;;;;16.58;45.52;101745.72;143717;642;47008;-67
2022/03/29 07:34:20;;;;;;;31.73;19.12;;;;;;;16.61;44.85;101747.16;143716;602;47004;-68
2022/03/29 07:36:48;;;;;;;36.47;20.23;;;;;;;16.63;44.74;101743.22;143719;568;47007;-69
2022/03/29 07:39:15;;;;;;;30.60;21.50;;;;;;;16.59;44.59;101735.72;143718;613;47002;-69
2022/03/29 07:41:41;;;;;;;33.63;22.35;;;;;;;16.56;44.88;101736.97;143715;621;48022;-69
2022/03/29 07:44:08;;;;;;;35.42;21.35;;;;;;;16.60;45.59;101732.78;143715;615;47013;-68
2022/03/29 07:46:34;;;;;;;34.05;21.08;;;;;;;16.68;45.36;101726.28;143719;573;47006;-68
2022/03/29 07:49:01;;;;;;;31.10;19.60;;;;;;;16.73;44.69;101725.63;143717;584;47002;-68
2022/03/29 07:51:28;;;;;;;31.52;21.58;;;;;;;16.77;44.50;101725.00;143717;706;47009;-67
2022/03/29 07:53:54;;;;;;;30.33;20.15;;;;;;;16.80;44.57;101715.59;143715;586;47004;-68
2022/03/29 07:56:20;;;;;;;35.13;20.88;;;;;;;16.89;44.90;101714.28;143715;569;48923;-68
2022/03/29 07:58:47;;;;;;;31.17;19.70;;;;;;;16.95;43.92;101713.47;143718;583;48002;-68
2022/03/29 08:01:13;;;;;;;33.55;21.10;;;;;;;16.96;44.94;101715.13;143718;618;47008;-68
2022/03/29 08:03:42;;;;;;;33.25;21.52;;;;;;;16.92;44.25;101705.72;143714;610;47004;-67
2022/03/29 08:06:09;;;;;;;31.00;20.58;;;;;;;16.97;44.09;101699.66;143717;573;47007;-67
2022/03/29 08:08:35;;;;;;;37.47;22.37;;;;;;;17.08;44.26;101707.16;143717;605;47002;-67
2022/03/29 08:11:03;;;;;;;35.88;21.95;;;;;;;17.18;44.47;101703.09;143717;659;47010;-68
2022/03/29 08:13:30;;;;;;;32.97;20.98;;;;;;;17.32;45.88;101693.00;143713;582;47004;-67
2022/03/29 08:15:58;;;;;;;30.48;22.65;;;;;;;17.48;47.03;101695.16;143719;595;47006;-67
2022/03/29 08:18:25;;;;;;;36.63;23.77;;;;;;;17.54;46.31;101693.44;143718;574;47002;-69
2022/03/29 08:20:52;;;;;;;29.67;22.67;;;;;;;17.51;47.50;101697.44;143719;589;47008;-67
2022/03/29 08:23:18;;;;;;;38.75;24.83;;;;;;;17.48;47.35;101703.31;143718;626;47002;-68
2022/03/29 08:25:45;;;;;;;34.75;24.50;;;;;;;17.38;47.47;101694.84;143719;568;47006;-67
2022/03/29 08:28:12;;;;;;;35.42;25.75;;;;;;;17.35;47.42;101698.81;143718;579;47002;-68
2022/03/29 08:30:39;;;;;;;31.67;22.13;;;;;;;17.22;46.97;101701.63;143718;650;47011;-67
2022/03/29 08:33:06;;;;;;;28.67;23.15;;;;;;;17.13;47.87;101696.44;143716;634;47004;-67
2022/03/29 08:35:33;;;;;;;30.12;24.02;;;;;;;17.13;48.75;101704.59;143718;628;47006;-67
2022/03/29 08:38:00;;;;;;;33.92;22.65;;;;;;;17.20;47.42;101695.56;143718;602;47002;-67
2022/03/29 08:40:27;;;;;;;32.60;22.13;;;;;;;17.23;47.24;101690.53;143717;576;47008;-67
2022/03/29 08:42:55;;;;;;;30.00;20.80;;;;;;;17.31;46.29;101684.00;143715;581;47004;-68
2022/03/29 08:45:31;;;;;;;32.45;19.95;;;;;;;17.47;45.81;101679.94;143720;579;47006;-67
2022/03/29 08:48:00;;;;;;;30.67;20.42;;;;;;;17.66;45.81;101671.84;143717;581;47004;-67
2022/03/29 08:50:30;;;;;;;27.48;18.73;;;;;;;17.82;44.99;101684.84;143719;605;47008;-68
2022/03/29 08:52:57;;;;;;;24.02;18.58;;;;;;;18.03;45.35;101671.94;143715;579;47004;-61
2022/03/29 08:55:24;;;;;;;25.75;17.08;;;;;;;18.26;44.11;101679.41;143720;566;47006;-61
2022/03/29 08:57:54;;;;;;;26.52;16.30;;;;;;;18.38;44.19;101681.34;143718;666;47004;-62
2022/03/29 09:00:23;;;;;;;24.15;15.35;;;;;;;18.48;43.43;101670.78;143718;575;47008;-62
2022/03/29 09:02:51;;;;;;;23.05;14.50;;;;;;;18.59;43.21;101658.31;143714;568;47004;-62
2022/03/29 09:05:22;;;;;;;21.25;14.02;;;;;;;18.77;42.28;101654.72;143719;622;47000;-61
2022/03/29 09:07:57;;;;;;;19.08;10.45;;;;;;;18.96;42.25;101651.97;143718;568;47002;-61
2022/03/29 09:10:38;;;;;;;;;;;;;;;19.03;41.23;101645.34;143722;972;47008;-62
2022/03/29 09:13:40;;;;;;;26.37;13.77;;;;;;;19.18;40.93;101633.19;143727;580;47002;-63
2022/03/29 09:16:09;;;;;;;21.48;14.45;;;;;;;19.22;41.45;101629.78;143719;615;47006;-64
2022/03/29 09:18:37;;;;;;;19.00;12.70;;;;;;;19.24;40.88;101626.81;143719;577;47002;-62
2022/03/29 09:21:17;;;;;;;20.58;13.38;;;;;;;19.33;40.49;101625.38;143714;594;49004;-62
2022/03/29 09:24:14;;;;;;;18.90;12.43;;;;;;;19.45;39.60;101628.12;143714;599;47004;-62
2022/03/29 09:27:01;;;;;;;19.33;12.85;;;;;;;19.62;39.10;101595.56;143717;639;47006;-62
2022/03/29 09:29:28;;;;;;;20.27;12.88;;;;;;;19.79;40.77;101597.56;143716;582;47004;-63
2022/03/29 09:32:09;;;;;;;18.35;11.38;;;;;;;19.92;38.80;101594.59;143718;595;47010;-61
2022/03/29 09:34:36;;;;;;;17.10;11.63;;;;;;;20.02;37.99;101583.09;143717;602;47004;-62
2022/03/29 09:37:04;;;;;;;14.90;8.57;;;;;;;20.10;36.63;101580.00;143714;608;48923;-62
2022/03/29 09:39:41;;;;;;;17.17;9.80;;;;;;;20.14;35.84;101588.50;143717;604;47002;-62
2022/03/29 09:42:17;;;;;;;20.17;8.40;;;;;;;20.19;35.94;101564.06;143714;572;47010;-62
2022/03/29 09:44:48;;;;;;;11.95;7.85;;;;;;;20.26;35.80;101564.75;143716;613;47004;-62
2022/03/29 09:47:22;;;;;;;22.73;10.38;;;;;;;20.37;35.94;101554.84;143717;592;47006;-61
2022/03/29 09:50:24;;;;;;;22.20;14.40;;;;;;;20.46;36.39;101563.47;143716;601;47004;-62
2022/03/29 09:52:50;;;;;;;15.70;9.10;;;;;;;20.53;35.74;101558.72;143718;630;47011;-62
2022/03/29 09:55:22;;;;;;;16.95;9.95;;;;;;;20.67;37.07;101558.41;143715;680;47004;-62
2022/03/29 09:57:53;;;;;;;19.37;11.23;;;;;;;20.73;34.95;101552.78;143720;567;47006;-62
2022/03/29 10:00:47;;;;;;;15.05;10.27;;;;;;;20.78;35.30;101548.50;143717;686;47004;-62
2022/03/29 10:03:16;;;;;;;20.48;12.07;;;;;;;20.85;35.39;101543.69;143717;590;47007;-62
2022/03/29 10:05:46;;;;;;;22.48;15.30;;;;;;;20.74;38.61;101559.03;143716;611;47004;-63
2022/03/29 10:11:07;;;;;;;26.65;17.73;;;;;;;20.17;41.48;101549.00;143718;576;47006;-62
2022/03/29 10:13:36;;;;;;;22.85;13.88;;;;;;;20.15;40.01;101550.06;143718;628;47008;-63
2022/03/29 10:16:04;;;;;;;23.58;16.80;;;;;;;20.23;40.96;101550.78;143715;636;47004;-62
2022/03/29 10:18:31;;;;;;;25.00;16.12;;;;;;;20.18;40.49;101540.59;143719;595;47006;-63
2022/03/29 10:20:58;;;;;;;27.67;16.48;;;;;;;19.96;39.81;101552.16;143719;578;47003;-62
2022/03/29 10:23:28;;;;;;;27.62;18.62;;;;;;;19.87;42.21;101547.28;143716;570;47011;-63
2022/03/29 10:25:55;;;;;;;24.85;18.37;;;;;;;20.02;41.37;101538.66;143716;601;47004;-62
2022/03/29 10:28:26;;;;;;;22.48;13.65;;;;;;;20.04;39.40;101542.78;143719;661;46007;-62
2022/03/29 10:30:53;;;;;;;25.05;14.07;;;;;;;19.88;39.88;101533.44;143718;625;47004;-62
2022/03/29 10:33:25;;;;;;;20.45;15.20;;;;;;;19.98;40.96;101525.50;143718;599;47008;-63
2022/03/29 10:36:09;;;;;;;31.75;17.62;;;;;;;20.02;41.30;101523.09;143717;641;47004;-63
2022/03/29 10:39:04;;;;;;;24.12;15.82;;;;;;;20.08;40.96;101518.56;143719;592;47006;-62
2022/03/29 10:41:51;;;;;;;24.25;17.62;;;;;;;20.32;40.61;101516.56;143717;590;47002;-62
2022/03/29 10:44:17;;;;;;;23.75;14.23;;;;;;;20.29;39.86;101501.53;143717;690;47009;-62
2022/03/29 10:46:51;;;;;;;20.23;12.23;;;;;;;20.50;39.74;101498.31;143718;576;47002;-62
2022/03/29 10:49:32;;;;;;;14.98;9.15;;;;;;;20.50;38.29;101490.97;143719;568;47006;-62
2022/03/29 10:52:28;;;;;;;18.55;11.10;;;;;;;20.64;38.17;101488.75;143716;586;47004;-62
2022/03/29 10:55:15;;;;;;;22.35;13.18;;;;;;;20.79;38.64;101482.72;143717;650;47010;-62
2022/03/29 10:58:02;;;;;;;16.67;12.82;;;;;;;20.79;37.76;101490.91;143716;584;47004;-62
2022/03/29 11:00:31;;;;;;;20.67;11.75;;;;;;;20.82;38.04;101482.25;143717;602;46006;-63
2022/03/29 11:03:11;;;;;;;18.77;12.25;;;;;;;20.82;38.85;101475.97;143718;606;47000;-62
2022/03/29 11:06:11;;;;;;;23.27;13.85;;;;;;;21.05;38.38;101466.75;143711;651;47010;-61
2022/03/29 11:08:48;;;;;;;21.02;11.60;;;;;;;21.18;36.68;101463.66;143713;579;47004;-62
2022/03/29 11:11:43;;;;;;;17.00;9.73;;;;;;;21.14;36.73;101461.69;143717;586;47006;-62
2022/03/29 11:14:39;;;;;;;20.23;13.70;;;;;;;21.17;37.02;101462.00;143716;617;47004;-62
2022/03/29 11:17:45;;;;;;;17.60;10.23;;;;;;;21.00;36.29;101461.22;143714;567;47008;-63
2022/03/29 11:20:35;;;;;;;22.98;12.90;;;;;;;20.90;36.53;101446.34;143712;574;47004;-62
2022/03/29 11:23:06;;;;;;;18.83;10.90;;;;;;;20.85;36.61;101448.13;143716;599;47006;-62
2022/03/29 11:25:43;;;;;;;15.95;12.10;;;;;;;20.82;37.50;101454.94;143715;588;47004;-62
2022/03/29 11:28:13;;;;;;;13.82;10.45;;;;;;;20.69;37.58;101442.41;143713;580;47010;-62
2022/03/29 11:30:39;;;;;;;17.98;12.02;;;;;;;20.53;38.71;101445.97;143713;579;47011;-63
2022/03/29 11:33:08;;;;;;;24.17;14.35;;;;;;;20.44;39.23;101440.94;143716;588;47006;-62